createdAt,value
2022-08-26T00:04:38.591Z,101488.13
2022-08-26T00:09:42.612Z,101499.84
2022-08-26T00:14:49.166Z,101499.53
2022-08-26T00:19:53.776Z,101495.09
2022-08-26T00:24:58.606Z,101500.47
2022-08-26T00:30:06.846Z,101497.19
2022-08-26T00:35:13.289Z,101486.75
2022-08-26T00:40:22.632Z,101489.44
2022-08-26T00:45:27.387Z,101482.00
2022-08-26T00:50:32.603Z,101476.19
2022-08-26T00:55:39.995Z,101481.59
2022-08-26T01:00:45.248Z,101479.34
2022-08-26T01:05:51.930Z,101471.91
2022-08-26T01:10:59.859Z,101478.94
2022-08-26T01:16:06.368Z,101475.63
2022-08-26T01:21:18.132Z,101475.56
2022-08-26T01:26:29.768Z,101474.16
2022-08-26T01:31:46.432Z,101479.28
2022-08-26T01:36:52.773Z,101468.31
2022-08-26T01:42:02.909Z,101476.16
2022-08-26T01:47:07.784Z,101472.56
2022-08-26T01:52:14.516Z,101484.69
2022-08-26T01:57:17.022Z,101479.16
2022-08-26T02:02:21.958Z,101473.63
2022-08-26T02:07:27.352Z,101474.63
2022-08-26T02:12:30.787Z,101473.47
2022-08-26T02:17:41.045Z,101473.38
2022-08-26T02:22:45.239Z,101467.03
2022-08-26T02:27:47.650Z,101471.31
2022-08-26T02:32:52.157Z,101472.03
2022-08-26T02:37:59.199Z,101465.41
2022-08-26T02:43:01.065Z,101466.72
2022-08-26T02:48:13.606Z,101453.56
2022-08-26T02:53:25.090Z,101453.72
2022-08-26T02:58:30.211Z,101460.28
2022-08-26T03:03:33.752Z,101453.66
2022-08-26T03:08:36.493Z,101453.31
2022-08-26T03:13:39.908Z,101457.59
2022-08-26T03:18:42.010Z,101451.81
2022-08-26T03:23:46.338Z,101458.66
2022-08-26T03:29:06.534Z,101454.31
2022-08-26T03:34:11.260Z,101455.59
2022-08-26T03:39:16.104Z,101444.97
2022-08-26T03:44:22.098Z,101457.41
2022-08-26T03:49:32.170Z,101445.34
2022-08-26T03:54:36.582Z,101444.97
2022-08-26T03:59:41.953Z,101460.53
2022-08-26T04:04:50.386Z,101450.59
2022-08-26T04:10:02.162Z,101445.81
2022-08-26T04:15:12.547Z,101442.63
2022-08-26T04:20:16.236Z,101454.25
2022-08-26T04:25:21.289Z,101448.91
2022-08-26T04:30:32.417Z,101435.09
2022-08-26T04:35:37.116Z,101437.66
2022-08-26T04:40:46.901Z,101426.81
2022-08-26T04:45:50.816Z,101433.53
2022-08-26T04:50:55.854Z,101447.16
2022-08-26T04:55:57.557Z,101452.28
2022-08-26T05:00:59.865Z,101447.56
2022-08-26T05:06:05.510Z,101444.88
2022-08-26T05:11:07.813Z,101443.91
2022-08-26T05:16:13.919Z,101433.03
2022-08-26T05:21:23.605Z,101441.56
2022-08-26T05:26:29.335Z,101445.09
2022-08-26T05:31:32.336Z,101439.53
2022-08-26T05:36:35.715Z,101445.19
2022-08-26T05:41:42.948Z,101450.50
2022-08-26T05:46:51.252Z,101457.59
2022-08-26T05:51:53.060Z,101452.81
2022-08-26T05:56:54.761Z,101464.41
2022-08-26T06:01:57.671Z,101458.63
2022-08-26T06:07:01.048Z,101465.09
2022-08-26T06:12:04.059Z,101469.19
2022-08-26T06:17:11.047Z,101470.22
2022-08-26T06:22:35.410Z,101470.66
2022-08-26T06:27:42.552Z,101465.38
2022-08-26T06:32:49.447Z,101464.47
2022-08-26T06:37:53.443Z,101468.47
2022-08-26T06:42:58.017Z,101465.69
2022-08-26T06:48:02.163Z,101464.94
2022-08-26T06:53:04.662Z,101468.66
2022-08-26T06:58:09.450Z,101469.41
2022-08-26T07:03:16.184Z,101467.09
2022-08-26T07:08:22.342Z,101454.44
2022-08-26T07:13:30.673Z,101468.78
2022-08-26T07:18:36.897Z,101478.31
2022-08-26T07:23:46.976Z,101485.53
2022-08-26T07:28:51.364Z,101485.75
2022-08-26T07:33:59.947Z,101506.69
2022-08-26T07:39:06.941Z,101501.59
2022-08-26T07:44:11.009Z,101525.81
2022-08-26T07:49:23.076Z,101525.97
2022-08-26T07:54:27.336Z,101528.88
2022-08-26T07:59:31.843Z,101533.63
2022-08-26T08:04:38.536Z,101537.19
2022-08-26T08:09:45.371Z,101536.56
2022-08-26T08:14:50.257Z,101523.53
2022-08-26T08:19:57.474Z,101530.00
2022-08-26T08:25:00.944Z,101511.16
2022-08-26T08:30:10.850Z,101522.16
2022-08-26T08:35:17.473Z,101520.88
2022-08-26T08:40:21.815Z,101520.16
2022-08-26T08:45:41.960Z,101511.41
2022-08-26T08:50:49.431Z,101509.56
2022-08-26T08:56:08.713Z,101512.69
2022-08-26T09:01:22.941Z,101505.88
2022-08-26T09:06:27.769Z,101497.94
2022-08-26T09:11:30.254Z,101502.09
2022-08-26T09:16:59.425Z,101505.44
2022-08-26T09:22:05.779Z,101523.59
2022-08-26T09:27:36.574Z,101522.28
2022-08-26T09:32:44.121Z,101520.38
2022-08-26T09:38:00.864Z,101529.72
2022-08-26T09:43:06.614Z,101531.13
2022-08-26T09:48:14.241Z,101541.56
2022-08-26T09:53:28.456Z,101520.69
2022-08-26T09:58:39.513Z,101518.75
2022-08-26T10:03:45.822Z,101526.50
2022-08-26T10:08:55.307Z,101525.66
2022-08-26T10:14:08.452Z,101533.06
2022-08-26T10:19:15.852Z,101526.47
2022-08-26T10:24:26.783Z,101522.09
2022-08-26T10:29:34.333Z,101530.31
2022-08-26T10:34:38.656Z,101544.03
2022-08-26T10:39:51.881Z,101538.84
2022-08-26T10:45:11.965Z,101547.06
2022-08-26T10:50:23.208Z,101547.31
2022-08-26T10:55:36.054Z,101551.72
2022-08-26T11:01:01.261Z,101559.97
2022-08-26T11:06:19.087Z,101551.72
2022-08-26T11:11:42.375Z,101563.53
2022-08-26T11:16:49.756Z,101560.50
2022-08-26T11:22:33.058Z,101565.16
2022-08-26T11:27:41.565Z,101566.72
2022-08-26T11:33:00.166Z,101562.25
2022-08-26T11:38:25.586Z,101560.72
2022-08-26T11:43:30.259Z,101553.78
2022-08-26T11:48:39.972Z,101555.22
2022-08-26T11:53:47.499Z,101543.38
2022-08-26T11:58:49.934Z,101541.66
2022-08-26T12:03:52.591Z,101540.03
2022-08-26T12:09:02.352Z,101540.19
2022-08-26T12:14:09.019Z,101533.34
2022-08-26T12:19:32.842Z,101542.53
2022-08-26T12:24:43.851Z,101544.91
2022-08-26T12:30:10.138Z,101544.13
2022-08-26T12:35:16.858Z,101541.75
2022-08-26T12:40:33.005Z,101539.84
2022-08-26T12:45:43.121Z,101536.72
2022-08-26T12:50:50.541Z,101535.16
2022-08-26T12:56:00.238Z,101533.16
2022-08-26T13:01:08.377Z,101529.59
2022-08-26T13:06:25.916Z,101523.19
2022-08-26T13:11:29.140Z,101512.53
2022-08-26T13:16:33.880Z,101516.41
2022-08-26T13:21:43.021Z,101514.91
2022-08-26T13:26:46.552Z,101521.38
2022-08-26T13:31:51.942Z,101527.25
2022-08-26T13:36:56.279Z,101531.91
2022-08-26T13:41:58.355Z,101532.75
2022-08-26T13:47:00.165Z,101518.94
2022-08-26T13:52:03.695Z,101517.59
2022-08-26T13:57:08.158Z,101535.09
2022-08-26T14:02:10.046Z,101536.16
2022-08-26T14:07:11.926Z,101538.00
2022-08-26T14:12:16.623Z,101544.84
2022-08-26T14:17:21.377Z,101534.34
2022-08-26T14:22:23.185Z,101543.97
2022-08-26T14:27:25.510Z,101526.16
2022-08-26T14:32:29.984Z,101514.88
2022-08-26T14:37:32.850Z,101523.84
2022-08-26T14:42:34.834Z,101526.84
2022-08-26T14:47:41.470Z,101526.88
2022-08-26T14:53:08.131Z,101512.22
2022-08-26T14:58:13.728Z,101532.66
2022-08-26T15:08:24.568Z,101539.19
2022-08-26T15:13:26.372Z,101543.69
2022-08-26T15:18:31.708Z,101520.34
2022-08-26T15:23:39.321Z,101525.09
2022-08-26T15:28:53.084Z,101533.56
2022-08-26T15:33:56.446Z,101548.84
2022-08-26T15:39:00.290Z,101530.28
2022-08-26T15:44:03.668Z,101559.09
2022-08-26T15:49:08.088Z,101547.94
2022-08-26T15:54:22.105Z,101554.09
2022-08-26T15:59:26.905Z,101561.09
2022-08-26T16:04:31.181Z,101544.59
2022-08-26T16:09:33.058Z,101551.44
2022-08-26T16:14:40.587Z,101552.25
2022-08-26T16:19:44.623Z,101554.66
2022-08-26T16:24:49.005Z,101539.75
2022-08-26T16:29:51.067Z,101545.72
2022-08-26T16:34:56.663Z,101543.41
2022-08-26T16:40:01.321Z,101565.84
2022-08-26T16:45:08.787Z,101562.56
2022-08-26T16:50:14.657Z,101566.13
2022-08-26T16:55:16.660Z,101576.13
2022-08-26T17:00:28.033Z,101578.63
2022-08-26T17:05:29.937Z,101593.94
2022-08-26T17:10:35.053Z,101590.53
2022-08-26T17:15:37.044Z,101597.72
2022-08-26T17:20:41.737Z,101604.00
2022-08-26T17:25:43.860Z,101615.28
2022-08-26T17:30:48.117Z,101623.09
2022-08-26T17:35:56.458Z,101625.69
2022-08-26T17:41:00.204Z,101616.19
2022-08-26T17:46:07.010Z,101620.16
2022-08-26T17:51:14.010Z,101615.69
2022-08-26T17:56:24.202Z,101613.34
2022-08-26T18:01:28.592Z,101615.97
2022-08-26T18:06:33.027Z,101619.63
2022-08-26T18:11:37.243Z,101620.63
2022-08-26T18:16:41.626Z,101621.25
2022-08-26T18:21:44.058Z,101619.19
2022-08-26T18:26:51.676Z,101636.84
2022-08-26T18:31:58.218Z,101644.44
2022-08-26T18:36:59.990Z,101639.75
2022-08-26T18:42:07.237Z,101640.47
2022-08-26T18:47:12.144Z,101639.81
2022-08-26T18:52:18.089Z,101635.28
2022-08-26T18:57:20.914Z,101637.34
2022-08-26T19:02:24.969Z,101639.22
2022-08-26T19:07:29.685Z,101648.59
2022-08-26T19:12:33.562Z,101652.28
2022-08-26T19:17:40.124Z,101657.28
2022-08-26T19:22:41.849Z,101664.50
2022-08-26T19:27:45.684Z,101653.84
2022-08-26T19:32:52.826Z,101663.34
2022-08-26T19:37:57.114Z,101656.09
2022-08-26T19:43:01.096Z,101655.38
2022-08-26T19:48:06.229Z,101651.22
2022-08-26T19:53:12.495Z,101645.91
2022-08-26T19:58:16.539Z,101644.88
2022-08-26T20:03:18.354Z,101641.97
2022-08-26T20:08:22.814Z,101644.00
2022-08-26T20:13:26.958Z,101641.75
2022-08-26T20:18:49.473Z,101646.25
2022-08-26T20:23:51.744Z,101647.78
2022-08-26T20:28:56.273Z,101640.19
2022-08-26T20:34:01.516Z,101641.03
2022-08-26T20:39:10.823Z,101637.22
2022-08-26T20:44:16.679Z,101632.97
2022-08-26T20:49:18.746Z,101636.94
2022-08-26T20:54:27.527Z,101626.88
2022-08-26T20:59:32.592Z,101639.38
2022-08-26T21:04:36.667Z,101644.75
2022-08-26T21:09:41.330Z,101645.69
2022-08-26T21:14:49.860Z,101666.84
2022-08-26T21:19:54.064Z,101673.56
2022-08-26T21:24:56.473Z,101671.44
2022-08-26T21:30:00.741Z,101668.94
2022-08-26T21:35:05.685Z,101672.59
2022-08-26T21:40:11.282Z,101669.50
2022-08-26T21:45:13.135Z,101661.56
2022-08-26T21:50:14.940Z,101661.56
2022-08-26T21:55:19.190Z,101668.31
2022-08-26T22:00:23.178Z,101659.56
2022-08-26T22:05:27.321Z,101672.75
2022-08-26T22:10:32.014Z,101671.31
2022-08-26T22:15:35.592Z,101672.00
2022-08-26T22:20:37.439Z,101668.22
2022-08-26T22:25:39.336Z,101671.63
2022-08-26T22:30:44.337Z,101678.34
2022-08-26T22:35:52.775Z,101678.56
2022-08-26T22:41:00.247Z,101674.06
2022-08-26T22:46:04.286Z,101678.91
2022-08-26T22:51:06.486Z,101678.72
2022-08-26T22:56:13.801Z,101670.28
2022-08-26T23:01:16.965Z,101678.06
2022-08-26T23:06:18.891Z,101675.13
2022-08-26T23:11:24.060Z,101671.88
2022-08-26T23:16:25.892Z,101675.44
2022-08-26T23:21:29.992Z,101671.09
2022-08-26T23:26:35.003Z,101669.19
2022-08-26T23:31:38.530Z,101660.66
2022-08-26T23:36:42.425Z,101664.88
2022-08-26T23:41:46.290Z,101665.53
2022-08-26T23:46:49.315Z,101660.31
2022-08-26T23:52:12.874Z,101661.19
2022-08-26T23:57:16.616Z,101654.28
